Time;durP1;ratioP1;P1;durP2;ratioP2;P2;SDS_P1;SDS_P2;PMS_P1;PMS_P2;Temp;Humidity;BMP_temperature;BMP_pressure;BME280_temperature;BME280_humidity;BME280_pressure;Samples;Min_cycle;Max_cycle;Signal;HPM_P1;HPM_P2
2021/10/11 00:00:35;;;;;;;30.42;22.67;;;;;;;14.54;58.29;100665.94;5092052;28;20055;-79
2021/10/11 00:03:02;;;;;;;31.33;22.83;;;;;;;14.58;57.65;100656.03;5106515;28;20051;-79
2021/10/11 00:05:29;;;;;;;33.20;22.80;;;;;;;14.59;57.55;100658.56;5113701;28;20074;-80
2021/10/11 00:07:56;;;;;;;28.52;19.60;;;;;;;14.61;57.62;100662.94;5112700;28;20482;-80
2021/10/11 00:10:24;;;;;;;28.30;21.13;;;;;;;14.63;57.58;100658.38;5106413;28;20484;-80
2021/10/11 00:12:52;;;;;;;33.22;23.05;;;;;;;14.62;57.71;100659.34;5091894;28;20135;-80
2021/10/11 00:15:42;;;;;;;33.08;22.65;;;;;;;14.58;58.48;100667.47;5094431;28;20040;-80
2021/10/11 00:18:09;;;;;;;30.92;23.02;;;;;;;14.62;57.62;100654.91;5112271;28;20040;-81
2021/10/11 00:20:38;;;;;;;29.45;22.83;;;;;;;14.59;57.73;100653.25;5112540;28;20059;-80
2021/10/11 00:23:09;;;;;;;29.75;22.73;;;;;;;14.56;58.48;100652.59;5112515;28;20466;-80
2021/10/11 00:25:36;;;;;;;34.53;24.17;;;;;;;14.56;58.01;100650.81;5112684;28;20733;-80
2021/10/11 00:28:04;;;;;;;31.77;23.02;;;;;;;14.53;58.36;100653.63;5112528;28;20066;-80
2021/10/11 00:30:34;;;;;;;33.80;24.30;;;;;;;14.50;58.79;100653.81;5112534;28;20138;-80
2021/10/11 00:33:02;;;;;;;36.83;24.73;;;;;;;14.50;58.47;100652.97;5096149;28;20048;-79
2021/10/11 00:35:28;;;;;;;33.13;23.10;;;;;;;14.48;58.53;100657.50;5091669;28;20054;-79
2021/10/11 00:38:13;;;;;;;34.20;25.02;;;;;;;14.41;59.85;100649.94;5092020;28;20047;-79
2021/10/11 00:40:39;;;;;;;27.90;21.88;;;;;;;14.44;58.55;100651.53;5091752;28;20058;-79
2021/10/11 00:43:06;;;;;;;30.52;22.92;;;;;;;14.40;58.76;100645.56;5091663;28;20043;-81
2021/10/11 00:45:35;;;;;;;27.67;20.55;;;;;;;14.38;59.46;100642.16;5092006;28;20052;-81
2021/10/11 00:48:02;;;;;;;29.73;21.42;;;;;;;14.33;58.95;100647.69;5094395;28;20383;-81
2021/10/11 00:50:29;;;;;;;25.17;19.55;;;;;;;14.31;59.15;100648.75;5095992;28;20056;-81
2021/10/11 00:53:06;;;;;;;27.65;20.45;;;;;;;14.24;60.58;100642.94;5095009;28;20073;-81
2021/10/11 00:55:34;;;;;;;28.40;19.75;;;;;;;14.27;59.35;100655.16;5095405;28;20044;-81
2021/10/11 00:58:03;;;;;;;27.52;19.25;;;;;;;14.24;60.55;100653.53;5095243;28;20056;-79
2021/10/11 01:00:31;;;;;;;27.05;19.83;;;;;;;14.26;59.74;100653.47;5095778;28;20130;-79
2021/10/11 01:02:57;;;;;;;24.35;19.05;;;;;;;14.26;59.78;100651.69;5095440;28;20094;-79
2021/10/11 01:05:24;;;;;;;24.67;19.00;;;;;;;14.26;60.06;100656.09;5110896;28;20047;-79
2021/10/11 01:07:51;;;;;;;22.20;17.30;;;;;;;14.26;60.07;100656.97;5115707;28;20058;-79
2021/10/11 01:10:18;;;;;;;24.38;18.38;;;;;;;14.27;60.30;100658.66;5115396;28;20059;-79
2021/10/11 01:12:47;;;;;;;25.23;19.38;;;;;;;14.28;61.04;100655.06;5115149;28;20052;-79
2021/10/11 01:15:14;;;;;;;24.40;18.55;;;;;;;14.30;60.67;100650.56;5115075;28;20146;-80
2021/10/11 01:17:41;;;;;;;23.48;18.20;;;;;;;14.31;60.65;100654.03;5115934;28;20138;-80
2021/10/11 01:20:08;;;;;;;24.27;18.17;;;;;;;14.33;60.74;100649.53;5113116;28;20050;-80
2021/10/11 01:22:40;;;;;;;21.40;16.88;;;;;;;14.34;61.11;100637.97;5115675;28;20397;-80
2021/10/11 01:25:09;;;;;;;19.98;15.10;;;;;;;14.36;61.15;100641.41;5114926;28;20051;-79
2021/10/11 01:27:36;;;;;;;17.77;14.25;;;;;;;14.38;60.75;100643.94;5115808;28;20062;-81
2021/10/11 01:30:16;;;;;;;19.58;15.15;;;;;;;14.37;62.43;100640.44;5114828;28;20051;-81
2021/10/11 01:32:45;;;;;;;18.63;13.73;;;;;;;14.43;61.17;100636.59;5114671;28;20055;-79
2021/10/11 01:35:13;;;;;;;18.02;13.80;;;;;;;14.45;61.24;100632.03;5113334;28;20074;-79
2021/10/11 01:37:42;;;;;;;18.33;13.73;;;;;;;14.48;61.17;100634.53;5114704;28;20062;-79
2021/10/11 01:40:10;;;;;;;18.55;13.90;;;;;;;14.49;61.36;100633.56;5106449;28;20056;-81
2021/10/11 01:42:36;;;;;;;17.25;13.35;;;;;;;14.53;61.39;100634.22;5095724;28;20055;-81
2021/10/11 01:45:15;;;;;;;20.23;14.73;;;;;;;14.53;62.53;100631.56;5094585;28;20409;-81
2021/10/11 01:47:42;;;;;;;23.20;15.02;;;;;;;14.57;61.44;100623.38;5094362;28;20122;-81
2021/10/11 01:50:09;;;;;;;22.15;15.75;;;;;;;14.62;61.53;100630.19;5095435;28;20401;-81
2021/10/11 01:52:36;;;;;;;20.33;14.55;;;;;;;14.63;61.54;100627.44;5094446;28;20482;-81
2021/10/11 01:55:05;;;;;;;21.90;15.65;;;;;;;14.65;62.07;100625.53;5094242;28;20482;-81
2021/10/11 01:57:33;;;;;;;25.80;17.15;;;;;;;14.68;61.63;100635.09;5094380;28;20459;-81
2021/10/11 01:59:59;;;;;;;22.63;14.98;;;;;;;14.69;61.63;100627.06;5094099;28;20409;-81
2021/10/11 02:02:29;;;;;;;23.75;15.35;;;;;;;14.70;62.58;100626.13;5094161;28;20044;-82
2021/10/11 02:04:56;;;;;;;22.33;16.05;;;;;;;14.73;61.93;100633.88;5093701;28;20114;-81
2021/10/11 02:07:23;;;;;;;24.60;14.88;;;;;;;14.77;61.92;100633.75;5095261;28;20060;-81
2021/10/11 02:09:50;;;;;;;20.42;14.15;;;;;;;14.77;61.98;100629.28;5094016;28;20383;-81
2021/10/11 02:12:17;;;;;;;23.38;14.15;;;;;;;14.80;61.90;100628.25;5093911;28;20048;-81
2021/10/11 02:14:45;;;;;;;20.92;13.88;;;;;;;14.81;61.85;100622.00;5093386;28;20087;-81
2021/10/11 02:17:27;;;;;;;17.67;13.20;;;;;;;14.80;63.05;100622.97;5093908;28;20494;-79
2021/10/11 02:19:54;;;;;;;19.73;13.30;;;;;;;14.86;61.65;100633.19;5094050;28;20052;-79
2021/10/11 02:22:24;;;;;;;22.95;14.00;;;;;;;14.88;61.88;100633.91;5104122;28;20278;-79
2021/10/11 02:24:55;;;;;;;19.83;13.13;;;;;;;14.89;62.76;100626.84;5114263;28;20066;-79
2021/10/11 02:27:22;;;;;;;21.27;14.18;;;;;;;14.92;61.80;100626.66;5114031;28;20059;-79
2021/10/11 02:29:48;;;;;;;19.05;12.80;;;;;;;14.94;61.75;100627.41;5114022;28;20445;-79
2021/10/11 02:32:15;;;;;;;22.65;11.85;;;;;;;14.94;61.93;100622.97;5113852;28;20051;-79
2021/10/11 02:34:42;;;;;;;21.55;11.43;;;;;;;14.94;61.88;100628.25;5113765;28;20062;-79
2021/10/11 02:37:13;;;;;;;16.67;11.07;;;;;;;14.92;62.78;100632.78;5112594;28;20513;-79
2021/10/11 02:39:39;;;;;;;20.00;10.90;;;;;;;14.95;61.80;100635.25;5093290;28;20052;-79
2021/10/11 02:42:06;;;;;;;19.17;10.80;;;;;;;14.94;62.09;100630.91;5093169;28;20154;-79
2021/10/11 02:44:33;;;;;;;20.90;11.38;;;;;;;14.95;61.97;100643.22;5092626;28;20056;-79
2021/10/11 02:47:06;;;;;;;15.98;10.40;;;;;;;14.94;63.07;100645.94;5093326;28;20048;-79
2021/10/11 02:49:32;;;;;;;16.60;10.15;;;;;;;14.96;62.20;100634.31;5093806;28;20051;-79
2021/10/11 02:51:59;;;;;;;16.23;10.80;;;;;;;14.95;62.29;100627.31;5092899;28;20143;-79
2021/10/11 02:54:26;;;;;;;17.30;10.50;;;;;;;14.97;62.06;100627.22;5093917;28;20054;-79
2021/10/11 02:56:52;;;;;;;16.98;9.60;;;;;;;14.97;62.20;100629.88;5093452;28;20122;-79
2021/10/11 02:59:19;;;;;;;14.25;8.93;;;;;;;14.97;62.02;100627.22;5093216;28;20052;-79
2021/10/11 03:01:48;;;;;;;17.00;9.63;;;;;;;14.94;62.80;100636.22;5093206;28;20360;-79
2021/10/11 03:04:15;;;;;;;16.77;9.60;;;;;;;14.95;62.17;100632.59;5092998;28;20375;-81
2021/10/11 03:06:43;;;;;;;19.02;9.68;;;;;;;14.95;62.42;100643.22;5093035;28;20052;-80
2021/10/11 03:09:09;;;;;;;19.23;9.50;;;;;;;14.95;62.27;100635.25;5092832;28;20058;-80
2021/10/11 03:11:36;;;;;;;16.45;9.57;;;;;;;14.94;62.10;100638.88;5105669;28;20055;-80
2021/10/11 03:14:03;;;;;;;15.30;9.32;;;;;;;14.95;62.29;100631.78;5113302;28;20051;-80
2021/10/11 03:16:30;;;;;;;16.33;9.27;;;;;;;14.94;62.38;100624.75;5113136;28;20056;-80
2021/10/11 03:18:56;;;;;;;14.63;8.45;;;;;;;14.94;62.38;100624.75;5113151;28;20059;-80
2021/10/11 03:21:25;;;;;;;13.75;8.38;;;;;;;14.92;62.50;100629.31;5096100;28;20056;-79
2021/10/11 03:23:52;;;;;;;13.13;7.82;;;;;;;14.92;62.11;100631.97;5092493;28;20047;-79
2021/10/11 03:26:23;;;;;;;18.23;8.38;;;;;;;14.90;62.86;100628.53;5092504;28;20048;-79
2021/10/11 03:28:50;;;;;;;13.75;7.32;;;;;;;14.90;62.21;100632.03;5092764;28;20551;-79
2021/10/11 03:31:22;;;;;;;12.40;7.53;;;;;;;14.87;63.06;100629.56;5092780;28;20131;-79
2021/10/11 03:33:48;;;;;;;14.50;7.82;;;;;;;14.89;62.24;100613.59;5099119;28;20059;-79
2021/10/11 03:36:17;;;;;;;14.23;6.78;;;;;;;14.87;62.54;100618.97;5114049;28;20055;-79
2021/10/11 03:38:44;;;;;;;11.90;6.55;;;;;;;14.88;62.26;100620.66;5112957;28;20054;-79
2021/10/11 03:41:14;;;;;;;10.50;6.07;;;;;;;14.87;62.89;100618.13;5113232;28;20130;-79
2021/10/11 03:43:40;;;;;;;13.00;6.72;;;;;;;14.88;62.07;100614.53;5112985;28;20048;-81
2021/10/11 03:46:10;;;;;;;12.30;6.63;;;;;;;14.85;62.73;100616.41;5109936;28;20052;-82
2021/10/11 03:48:37;;;;;;;11.45;6.22;;;;;;;14.85;61.95;100600.50;5092626;28;20052;-81
2021/10/11 03:51:04;;;;;;;10.18;5.63;;;;;;;14.84;61.99;100598.81;5110740;28;20062;-81
2021/10/11 03:53:30;;;;;;;14.80;6.55;;;;;;;14.83;62.11;100604.19;5112328;28;20058;-81
2021/10/11 03:56:00;;;;;;;10.23;6.28;;;;;;;14.81;62.68;100608.75;5112894;28;20066;-81
2021/10/11 03:58:27;;;;;;;13.40;5.95;;;;;;;14.80;62.07;100607.06;5112474;28;20058;-81
2021/10/11 04:00:57;;;;;;;9.27;5.18;;;;;;;14.75;62.49;100604.66;5102214;28;20051;-81
2021/10/11 04:03:24;;;;;;;11.25;5.88;;;;;;;14.75;61.99;100604.66;5092606;28;20390;-81
2021/10/11 04:05:51;;;;;;;12.32;5.90;;;;;;;14.72;62.12;100610.13;5092122;28;20055;-81
2021/10/11 04:08:20;;;;;;;14.15;6.35;;;;;;;14.71;61.82;100613.72;5092286;28;20078;-79
2021/10/11 04:13:20;;;;;;;14.73;5.80;;;;;;;14.65;61.84;100601.69;5094153;28;20048;-79
2021/10/11 04:15:52;;;;;;;10.73;4.80;;;;;;;14.59;62.50;100600.28;5092142;28;20505;-79
2021/10/11 04:18:19;;;;;;;10.20;4.90;;;;;;;14.59;61.82;100594.13;5092194;28;20505;-79
2021/10/11 04:20:46;;;;;;;9.85;4.65;;;;;;;14.55;61.97;100590.78;5092686;28;20055;-79
2021/10/11 04:23:13;;;;;;;14.77;4.93;;;;;;;14.53;61.83;100595.34;5094237;28;20054;-79
2021/10/11 04:25:41;;;;;;;9.40;4.78;;;;;;;14.50;61.83;100607.94;5096075;28;20121;-81
2021/10/11 04:28:09;;;;;;;14.07;5.03;;;;;;;14.48;61.82;100607.16;5096193;28;20075;-81
2021/10/11 04:30:44;;;;;;;15.02;4.65;;;;;;;14.41;62.29;100607.53;5095969;28;20056;-81
2021/10/11 04:33:11;;;;;;;13.23;4.13;;;;;;;14.41;61.54;100604.03;5105767;28;20044;-81
2021/10/11 04:35:47;;;;;;;10.52;4.60;;;;;;;14.35;62.23;100607.88;5116426;28;20044;-81
2021/10/11 04:38:14;;;;;;;6.38;3.22;;;;;;;14.35;61.57;100609.72;5116448;28;20113;-81
2021/10/11 04:40:42;;;;;;;10.55;3.85;;;;;;;14.30;61.59;100610.84;5116270;28;20488;-81
2021/10/11 04:43:09;;;;;;;8.57;3.30;;;;;;;14.28;61.69;100609.22;5115801;28;20063;-81
2021/10/11 04:45:36;;;;;;;10.07;3.28;;;;;;;14.25;61.60;100604.09;5115909;28;20070;-81
2021/10/11 04:48:05;;;;;;;5.95;2.58;;;;;;;14.22;61.67;100607.78;5116148;28;20051;-82
2021/10/11 04:50:33;;;;;;;13.32;3.17;;;;;;;14.18;61.56;100612.41;5096504;28;20130;-79
2021/10/11 04:53:05;;;;;;;11.68;3.33;;;;;;;14.15;61.84;100607.28;5095392;28;20428;-79
2021/10/11 04:55:32;;;;;;;11.60;3.20;;;;;;;14.15;61.37;100609.94;5095368;28;20474;-80
2021/10/11 04:58:00;;;;;;;14.20;2.80;;;;;;;14.13;61.37;100611.81;5095483;28;20056;-80
2021/10/11 05:00:28;;;;;;;8.63;2.67;;;;;;;14.10;61.30;100611.13;5095096;28;20052;-80
2021/10/11 05:03:08;;;;;;;8.80;2.33;;;;;;;14.04;61.82;100622.94;5095833;28;20573;-80
2021/10/11 05:05:34;;;;;;;8.07;2.20;;;;;;;14.05;61.25;100624.63;5096234;28;20052;-79
2021/10/11 05:08:06;;;;;;;11.63;2.65;;;;;;;14.00;61.76;100627.56;5094942;28;20056;-79
2021/10/11 05:10:33;;;;;;;10.93;2.20;;;;;;;14.00;61.29;100627.56;5095224;28;20052;-79
2021/10/11 05:13:04;;;;;;;4.68;1.83;;;;;;;13.97;61.83;100629.53;5095416;28;20304;-79
2021/10/11 05:15:31;;;;;;;5.63;2.25;;;;;;;13.96;61.09;100630.47;5095023;28;20490;-79
2021/10/11 05:18:01;;;;;;;7.60;2.22;;;;;;;13.91;61.76;100626.28;5095731;28;20381;-79
2021/10/11 05:20:33;;;;;;;8.30;2.55;;;;;;;13.91;61.28;100633.38;5096725;28;20044;-79
2021/10/11 05:23:05;;;;;;;6.70;2.05;;;;;;;13.86;61.84;100620.41;5095136;28;20048;-79
2021/10/11 05:25:31;;;;;;;6.60;2.00;;;;;;;13.87;61.22;100623.91;5111987;28;20067;-79
2021/10/11 05:28:05;;;;;;;9.73;2.40;;;;;;;13.80;61.85;100624.25;5095034;28;20052;-79
2021/10/11 05:30:33;;;;;;;7.43;1.95;;;;;;;13.79;61.27;100622.53;5095500;28;20463;-79
2021/10/11 05:33:22;;;;;;;9.13;2.20;;;;;;;13.73;61.92;100629.97;5094598;28;20052;-81
2021/10/11 05:35:53;;;;;;;6.78;1.67;;;;;;;13.74;61.52;100631.69;5110446;28;20048;-81
2021/10/11 05:38:21;;;;;;;7.93;2.08;;;;;;;13.71;61.60;100631.88;5114884;28;20512;-81
2021/10/11 05:40:48;;;;;;;7.22;2.13;;;;;;;13.68;61.39;100622.28;5114652;28;20138;-81
2021/10/11 05:43:17;;;;;;;7.55;2.13;;;;;;;13.65;62.25;100631.25;5114656;28;20054;-81
2021/10/11 05:45:44;;;;;;;8.50;2.00;;;;;;;13.66;61.70;100626.81;5114999;28;20521;-81
2021/10/11 05:48:11;;;;;;;10.35;2.50;;;;;;;13.64;61.87;100628.72;5114914;28;20074;-81
2021/10/11 05:50:37;;;;;;;12.02;2.92;;;;;;;13.62;61.69;100627.94;5108152;28;20048;-81
2021/10/11 05:53:04;;;;;;;7.32;2.60;;;;;;;13.60;61.85;100630.66;5093916;28;20052;-83
2021/10/11 05:55:31;;;;;;;8.52;2.70;;;;;;;13.60;61.90;100637.75;5093892;28;20059;-85
2021/10/11 05:58:15;;;;;;;7.55;2.70;;;;;;;13.53;62.77;100634.59;5094277;28;20056;-85
2021/10/11 06:00:41;;;;;;;7.68;2.45;;;;;;;13.56;61.87;100642.34;5094324;28;20044;-81
2021/10/11 06:03:16;;;;;;;8.15;2.38;;;;;;;13.51;62.64;100653.19;5094285;28;20109;-81
2021/10/11 06:05:43;;;;;;;8.32;2.40;;;;;;;13.53;61.93;100651.31;5095291;28;20044;-80
2021/10/11 06:08:14;;;;;;;10.20;2.50;;;;;;;13.51;62.59;100652.34;5094555;28;20052;-81
2021/10/11 06:10:40;;;;;;;8.73;2.70;;;;;;;13.51;61.96;100647.03;5094325;28;20059;-81
2021/10/11 06:13:08;;;;;;;7.88;2.35;;;;;;;13.49;62.13;100648.94;5093986;28;20406;-81
2021/10/11 06:15:40;;;;;;;8.43;2.78;;;;;;;13.46;62.66;100646.41;5108172;28;20051;-81
2021/10/11 06:18:07;;;;;;;7.82;2.30;;;;;;;13.46;62.19;100647.25;5114686;28;20062;-81
2021/10/11 06:20:36;;;;;;;8.10;2.30;;;;;;;13.45;62.51;100650.84;5114089;28;20063;-81
2021/10/11 06:23:03;;;;;;;6.65;1.95;;;;;;;13.45;62.21;100652.66;5105154;28;20044;-81
2021/10/11 06:25:41;;;;;;;13.77;2.63;;;;;;;13.40;63.18;100656.41;5094150;28;20474;-81
2021/10/11 06:28:08;;;;;;;9.60;2.47;;;;;;;13.45;62.33;100660.59;5093713;28;20483;-85
2021/10/11 06:30:35;;;;;;;6.28;2.45;;;;;;;13.46;62.25;100657.00;5093692;28;20106;-85
2021/10/11 06:36:42;;;;;;;7.00;2.17;;;;;;;13.51;62.15;100671.72;5094549;28;20093;-85
2021/10/11 06:39:30;;;;;;;5.60;2.00;;;;;;;13.46;63.08;100668.41;5103154;28;20044;-81
2021/10/11 06:41:57;;;;;;;11.27;2.28;;;;;;;13.52;62.27;100662.84;5114697;28;20044;-82
2021/10/11 06:44:28;;;;;;;13.02;2.70;;;;;;;13.53;62.92;100669.00;5113996;28;20127;-80
2021/10/11 06:46:55;;;;;;;8.15;2.10;;;;;;;13.55;62.38;100667.09;5113279;28;20462;-80
2021/10/11 06:49:25;;;;;;;9.43;2.53;;;;;;;13.55;62.75;100675.03;5113431;28;20050;-80
2021/10/11 06:52:25;;;;;;;8.35;2.05;;;;;;;13.53;63.17;100679.56;5113454;28;20051;-81
2021/10/11 06:54:51;;;;;;;8.57;2.45;;;;;;;13.59;62.34;100676.56;5109514;28;20067;-81
2021/10/11 06:57:18;;;;;;;5.22;2.00;;;;;;;13.60;62.30;100675.63;5113519;28;20055;-81
2021/10/11 06:59:47;;;;;;;9.27;2.08;;;;;;;13.61;62.93;100677.34;5113493;28;20047;-81
2021/10/11 07:02:14;;;;;;;8.95;2.70;;;;;;;13.66;62.75;100677.97;5113534;28;20056;-81
2021/10/11 07:04:45;;;;;;;8.48;2.15;;;;;;;13.70;62.72;100675.97;5113375;28;20470;-81
2021/10/11 07:07:14;;;;;;;6.45;2.28;;;;;;;13.73;62.72;100677.59;5113371;28;20048;-81
2021/10/11 07:09:40;;;;;;;10.02;2.50;;;;;;;13.75;62.25;100676.56;5113297;28;20047;-81
2021/10/11 07:12:21;;;;;;;10.20;2.35;;;;;;;13.71;63.27;100682.97;5097561;28;20074;-81
2021/10/11 07:14:50;;;;;;;11.43;2.63;;;;;;;13.75;62.47;100673.94;5094096;28;20048;-86
2021/10/11 07:17:17;;;;;;;8.55;1.92;;;;;;;13.76;62.49;100674.78;5092577;28;20062;-81
2021/10/11 07:20:14;;;;;;;10.20;1.88;;;;;;;13.70;63.36;100678.63;5094028;28;20406;-81
2021/10/11 07:22:41;;;;;;;7.93;1.90;;;;;;;13.76;62.66;100690.66;5092708;28;20050;-81
2021/10/11 07:25:18;;;;;;;9.25;2.08;;;;;;;13.72;63.11;100683.84;5092321;28;20048;-81
2021/10/11 07:27:47;;;;;;;7.47;2.08;;;;;;;13.76;62.79;100694.16;5101690;28;20044;-81
2021/10/11 07:30:55;;;;;;;5.25;1.73;;;;;;;13.75;63.59;100710.13;5107203;28;20056;-81
2021/10/11 07:33:22;;;;;;;7.88;1.92;;;;;;;13.83;62.92;100712.34;5107739;28;20073;-85
2021/10/11 07:35:51;;;;;;;7.18;1.88;;;;;;;13.86;63.10;100707.72;5102013;28;20113;-85
2021/10/11 07:38:22;;;;;;;7.38;1.52;;;;;;;13.90;63.57;100714.56;5113078;28;20055;-81
2021/10/11 07:40:51;;;;;;;7.50;1.80;;;;;;;13.97;63.09;100707.13;5112726;28;20059;-81
2021/10/11 07:43:18;;;;;;;10.10;2.15;;;;;;;14.03;63.06;100709.44;5113205;28;20039;-81
2021/10/11 07:45:48;;;;;;;6.82;2.05;;;;;;;14.08;63.72;100709.19;5113009;28;20051;-81
2021/10/11 07:48:15;;;;;;;10.73;2.25;;;;;;;14.17;63.19;100708.66;5112566;28;20055;-81
2021/10/11 07:50:42;;;;;;;9.85;2.28;;;;;;;14.24;63.04;100708.31;5112557;28;20090;-81
2021/10/11 07:53:09;;;;;;;9.05;2.38;;;;;;;14.28;63.02;100710.69;5108016;28;20055;-81
2021/10/11 07:56:10;;;;;;;12.52;2.28;;;;;;;14.31;63.30;100717.59;5092088;28;20433;-80
2021/10/11 07:58:52;;;;;;;6.43;1.67;;;;;;;14.36;62.84;100715.56;5096286;28;20040;-81
2021/10/11 08:01:19;;;;;;;8.20;1.75;;;;;;;14.44;62.25;100715.94;5097230;28;20059;-81
2021/10/11 08:03:45;;;;;;;10.75;2.22;;;;;;;14.48;62.55;100718.44;5096135;28;20548;-81
2021/10/11 08:06:23;;;;;;;8.82;2.97;;;;;;;14.46;62.89;100716.72;5096675;28;20052;-85
2021/10/11 08:08:50;;;;;;;7.85;2.00;;;;;;;14.53;62.45;100719.00;5112734;28;20424;-85
2021/10/11 08:11:18;;;;;;;7.65;2.15;;;;;;;14.54;62.58;100710.13;5116446;28;20091;-81
2021/10/11 08:13:58;;;;;;;8.35;2.15;;;;;;;14.55;62.80;100720.63;5116255;28;20375;-81
2021/10/11 08:16:25;;;;;;;9.52;3.15;;;;;;;14.62;62.36;100720.28;5116679;28;20397;-81
2021/10/11 08:18:52;;;;;;;6.70;2.00;;;;;;;14.64;62.20;100718.38;5116601;28;20400;-81
2021/10/11 08:21:21;;;;;;;7.07;1.90;;;;;;;14.65;62.82;100725.41;5117953;28;20056;-85
2021/10/11 08:23:52;;;;;;;7.78;2.38;;;;;;;14.68;62.13;100726.06;5108089;28;20040;-80
2021/10/11 08:26:21;;;;;;;9.82;2.38;;;;;;;14.69;62.62;100721.63;5096197;28;20048;-81
2021/10/11 08:28:48;;;;;;;12.23;2.92;;;;;;;14.72;62.49;100717.00;5096031;28;20059;-81
2021/10/11 08:31:15;;;;;;;12.48;2.95;;;;;;;14.77;62.41;100723.84;5095890;28;20052;-81
2021/10/11 08:33:42;;;;;;;7.43;2.22;;;;;;;14.79;62.45;100722.81;5095472;28;20135;-81
2021/10/11 08:36:14;;;;;;;10.57;2.30;;;;;;;14.80;62.73;100724.50;5095896;28;20052;-81
2021/10/11 08:38:42;;;;;;;12.35;2.55;;;;;;;14.84;62.66;100741.09;5095567;28;20063;-81
2021/10/11 08:41:10;;;;;;;4.68;2.22;;;;;;;14.87;62.34;100738.25;5112071;28;20051;-81
2021/10/11 08:43:38;;;;;;;11.80;2.35;;;;;;;14.89;62.32;100738.16;5115943;28;20478;-85
2021/10/11 08:46:44;;;;;;;9.00;2.15;;;;;;;14.87;62.97;100725.00;5116087;28;20052;-85
2021/10/11 08:49:11;;;;;;;12.60;2.53;;;;;;;14.95;62.47;100738.66;5116045;28;20682;-81
2021/10/11 08:51:38;;;;;;;8.93;2.35;;;;;;;14.97;62.27;100731.47;5116896;28;20139;-85
2021/10/11 08:54:40;;;;;;;16.02;3.08;;;;;;;14.95;62.67;100728.03;5115331;28;20077;-86
2021/10/11 08:57:30;;;;;;;8.02;2.55;;;;;;;15.00;62.86;100732.22;5115430;28;20040;-86
2021/10/11 09:00:12;;;;;;;7.05;2.30;;;;;;;15.03;62.82;100734.69;5115613;28;20056;-81
2021/10/11 09:02:54;;;;;;;10.23;2.50;;;;;;;15.07;62.85;100737.06;5116465;28;20409;-81
2021/10/11 09:05:28;;;;;;;11.75;2.70;;;;;;;15.14;62.73;100737.53;5115354;28;20055;-81
2021/10/11 09:08:00;;;;;;;8.30;2.50;;;;;;;15.19;62.68;100742.56;5112400;28;20410;-81
2021/10/11 09:10:28;;;;;;;7.07;2.53;;;;;;;15.24;62.27;100733.41;5115176;28;20055;-80
2021/10/11 09:12:59;;;;;;;8.90;2.38;;;;;;;15.28;62.58;100742.00;5114331;28;20055;-82
2021/10/11 09:15:30;;;;;;;11.80;3.10;;;;;;;15.35;62.28;100739.84;5115137;28;20095;-81
2021/10/11 09:18:03;;;;;;;10.18;2.80;;;;;;;15.40;62.30;100740.41;5115210;28;20051;-81
2021/10/11 09:20:31;;;;;;;9.68;2.65;;;;;;;15.46;62.49;100739.16;5101352;28;20056;-81
2021/10/11 09:23:01;;;;;;;11.40;3.30;;;;;;;15.52;62.50;100745.91;5095291;28;20062;-81
2021/10/11 09:25:39;;;;;;;10.80;2.92;;;;;;;15.56;62.92;100740.31;5094564;28;20052;-81
2021/10/11 09:28:07;;;;;;;10.02;2.83;;;;;;;15.67;62.46;100744.09;5095056;28;20052;-81
2021/10/11 09:30:41;;;;;;;9.85;2.47;;;;;;;15.73;62.96;100738.38;5095256;28;20052;-81
2021/10/11 09:33:29;;;;;;;6.63;2.47;;;;;;;15.83;62.51;100741.31;5095017;28;20397;-82
2021/10/11 09:35:56;;;;;;;10.30;2.30;;;;;;;15.94;62.14;100743.28;5114639;28;20056;-81
2021/10/11 09:38:24;;;;;;;9.77;2.42;;;;;;;16.01;62.04;100744.66;5114941;28;20478;-81
2021/10/11 09:40:58;;;;;;;4.82;2.08;;;;;;;16.06;62.07;100747.84;5115031;28;20442;-80
2021/10/11 09:43:28;;;;;;;9.93;2.60;;;;;;;16.13;61.76;100749.16;5115044;28;20051;-81
2021/10/11 09:45:55;;;;;;;6.63;1.80;;;;;;;16.22;61.82;100747.69;5114656;28;20055;-81
2021/10/11 09:48:29;;;;;;;11.35;1.92;;;;;;;16.26;61.91;100751.88;5115041;28;20048;-81
2021/10/11 09:50:55;;;;;;;14.80;2.25;;;;;;;16.36;61.70;100749.47;5114093;28;20052;-85
2021/10/11 09:53:23;;;;;;;8.48;2.20;;;;;;;16.43;61.51;100741.94;5114599;28;20496;-85
2021/10/11 09:55:53;;;;;;;10.07;2.33;;;;;;;16.49;61.25;100744.19;5114562;28;20051;-80
2021/10/11 09:58:23;;;;;;;12.38;3.08;;;;;;;16.56;60.77;100741.97;5114618;28;20074;-82
2021/10/11 10:00:51;;;;;;;11.85;2.90;;;;;;;16.64;60.97;100741.47;5114321;28;20058;-82
2021/10/11 10:03:19;;;;;;;8.60;2.13;;;;;;;16.71;60.77;100745.41;5114642;28;20087;-82
2021/10/11 10:05:55;;;;;;;12.60;2.42;;;;;;;16.76;61.16;100751.28;5110001;28;20048;-82
2021/10/11 10:08:25;;;;;;;14.73;2.50;;;;;;;16.89;60.99;100745.13;5094126;28;20479;-82
2021/10/11 10:11:00;;;;;;;9.52;2.00;;;;;;;16.96;60.83;100743.75;5094057;28;20394;-82
2021/10/11 10:13:36;;;;;;;11.52;2.88;;;;;;;17.07;60.70;100743.03;5093529;28;20052;-82
2021/10/11 10:16:08;;;;;;;10.73;2.00;;;;;;;17.19;60.15;100741.34;5093886;28;20056;-86
2021/10/11 10:18:39;;;;;;;9.57;2.15;;;;;;;17.30;59.93;100745.91;5095147;28;20452;-82
2021/10/11 10:21:30;;;;;;;9.77;2.25;;;;;;;17.38;60.09;100740.06;5093544;28;20051;-82
2021/10/11 10:23:57;;;;;;;8.45;2.38;;;;;;;17.54;59.82;100740.69;5093597;28;20058;-80
2021/10/11 10:26:37;;;;;;;9.07;1.98;;;;;;;17.63;59.66;100736.53;5093462;28;20105;-80
2021/10/11 10:29:21;;;;;;;10.13;2.05;;;;;;;17.77;60.32;100732.88;5093576;28;20048;-80
2021/10/11 10:32:05;;;;;;;8.30;1.90;;;;;;;17.95;59.63;100725.34;5094106;28;20048;-81
2021/10/11 10:34:31;;;;;;;;;;;;;;;18.14;60.21;100723.19;5093844;28;20052;-80
2021/10/11 10:37:09;;;;;;;8.77;1.98;;;;;;;18.33;57.89;100720.88;5093648;28;19920;-80
2021/10/11 10:39:45;;;;;;;4.88;1.42;;;;;;;18.49;57.53;100722.38;5093490;28;20051;-81
2021/10/11 10:42:41;;;;;;;10.05;2.17;;;;;;;18.54;56.09;100727.38;5093169;28;20056;-80
2021/10/11 10:45:19;;;;;;;5.38;1.73;;;;;;;18.58;55.75;100731.50;5084689;28;20048;-81
2021/10/11 10:47:49;;;;;;;9.18;2.00;;;;;;;18.61;55.84;100726.78;5093863;28;20056;-80
2021/10/11 10:50:22;;;;;;;7.90;1.60;;;;;;;18.59;54.98;100730.53;5094111;28;20055;-82
2021/10/11 10:52:51;;;;;;;;;;;;;;;18.59;56.17;100733.19;5094198;28;20067;-81
2021/10/11 10:55:22;;;;;;;9.05;2.20;;;;;;;18.59;54.56;100728.72;5093977;28;19920;-81
2021/10/11 11:01:29;;;;;;;10.15;1.67;;;;;;;18.44;55.06;100724.53;5082918;28;20145;-86
2021/10/11 11:03:56;;;;;;;8.73;1.95;;;;;;;18.41;55.08;100732.75;5093019;28;20051;-85
2021/10/11 11:06:31;;;;;;;6.70;2.03;;;;;;;18.28;55.14;100736.34;5093895;28;20055;-86
2021/10/11 11:09:13;;;;;;;6.32;1.63;;;;;;;18.16;55.18;100739.94;5093081;28;20402;-85
2021/10/11 11:11:47;;;;;;;6.35;1.90;;;;;;;18.03;55.16;100743.47;5095561;28;20056;-86
2021/10/11 11:14:14;;;;;;;10.50;1.88;;;;;;;17.91;55.28;100736.34;5092672;28;20044;-86
2021/10/11 11:16:51;;;;;;;10.05;1.77;;;;;;;17.71;55.43;100734.16;5093021;28;20056;-85
2021/10/11 11:19:18;;;;;;;4.63;1.40;;;;;;;17.63;55.88;100725.00;5092532;28;20048;-80
2021/10/11 11:21:55;;;;;;;4.82;1.25;;;;;;;17.50;56.92;100728.56;5112720;28;20047;-80
2021/10/11 11:24:23;;;;;;;6.03;1.70;;;;;;;17.50;57.21;100731.22;5112783;28;20039;-80
2021/10/11 11:26:50;;;;;;;8.88;1.85;;;;;;;17.50;57.52;100725.91;5113079;28;20121;-80
2021/10/11 11:29:20;;;;;;;9.85;1.48;;;;;;;17.54;57.53;100727.38;5113106;28;20401;-82
2021/10/11 11:31:52;;;;;;;9.77;1.70;;;;;;;17.60;57.62;100725.25;5112334;28;20055;-82
2021/10/11 11:34:38;;;;;;;4.32;1.27;;;;;;;17.69;57.82;100721.91;5092018;28;20119;-82
2021/10/11 11:37:20;;;;;;;8.43;1.20;;;;;;;17.77;57.44;100713.38;5092903;28;20052;-82
2021/10/11 11:39:47;;;;;;;7.85;1.60;;;;;;;17.89;57.58;100717.81;5092621;28;20402;-82
2021/10/11 11:42:38;;;;;;;7.38;1.77;;;;;;;17.93;56.81;100721.09;5092253;28;20048;-82
2021/10/11 11:45:05;;;;;;;6.20;1.55;;;;;;;18.04;57.17;100723.84;5092440;28;20052;-82